createdAt,value
2022-12-13T00:00:51.485Z,0.00
2022-12-13T00:01:51.519Z,0.00
2022-12-13T00:02:51.438Z,0.00
2022-12-13T00:03:51.463Z,0.00
2022-12-13T00:04:51.397Z,0.00
2022-12-13T00:05:51.378Z,0.00
2022-12-13T00:06:51.349Z,0.00
2022-12-13T00:07:51.418Z,0.00
2022-12-13T00:08:51.306Z,0.00
2022-12-13T00:09:51.320Z,0.00
2022-12-13T00:10:51.264Z,0.00
2022-12-13T00:11:51.248Z,0.00
2022-12-13T00:12:51.218Z,0.00
2022-12-13T00:13:51.198Z,0.00
2022-12-13T00:14:51.172Z,0.00
2022-12-13T00:15:51.152Z,0.00
2022-12-13T00:16:51.170Z,0.00
2022-12-13T00:17:51.110Z,0.00
2022-12-13T00:18:51.082Z,0.00
2022-12-13T00:19:51.063Z,0.00
2022-12-13T00:20:51.039Z,0.00
2022-12-13T00:21:51.023Z,0.00
2022-12-13T00:22:50.994Z,0.00
2022-12-13T00:23:50.978Z,0.00
2022-12-13T00:24:50.951Z,0.00
2022-12-13T00:25:50.953Z,0.00
2022-12-13T00:26:50.904Z,0.00
2022-12-13T00:27:50.885Z,0.00
2022-12-13T00:28:50.861Z,0.00
2022-12-13T00:29:50.842Z,0.00
2022-12-13T00:30:50.888Z,0.00
2022-12-13T00:31:59.453Z,0.00
2022-12-13T00:32:50.770Z,0.00
2022-12-13T00:33:50.752Z,0.00
2022-12-13T00:34:50.726Z,0.00
2022-12-13T00:35:50.707Z,0.00
2022-12-13T00:36:50.685Z,0.00
2022-12-13T00:37:50.663Z,0.00
2022-12-13T00:38:50.636Z,0.00
2022-12-13T00:39:50.617Z,0.00
2022-12-13T00:40:50.593Z,0.00
2022-12-13T00:41:50.600Z,0.00
2022-12-13T00:42:50.546Z,0.00
2022-12-13T00:43:50.528Z,0.00
2022-12-13T00:44:50.501Z,0.00
2022-12-13T00:45:50.512Z,0.00
2022-12-13T00:46:50.456Z,0.00
2022-12-13T00:47:50.438Z,0.00
2022-12-13T00:48:50.412Z,0.00
2022-12-13T00:49:50.393Z,0.00
2022-12-13T00:50:50.366Z,0.00
2022-12-13T00:51:50.349Z,0.00
2022-12-13T00:52:50.323Z,0.00
2022-12-13T00:53:50.306Z,0.00
2022-12-13T00:54:50.279Z,0.00
2022-12-13T00:55:50.262Z,0.00
2022-12-13T00:56:50.233Z,0.00
2022-12-13T00:57:50.234Z,0.00
2022-12-13T00:58:52.154Z,0.00
2022-12-13T00:59:50.171Z,0.00
2022-12-13T01:00:50.145Z,0.00
2022-12-13T01:01:50.163Z,0.00
2022-12-13T01:02:50.099Z,0.00
2022-12-13T01:03:50.085Z,0.00
2022-12-13T01:04:50.106Z,0.00
2022-12-13T01:06:14.471Z,0.00
2022-12-13T01:06:50.192Z,0.00
2022-12-13T01:07:50.030Z,0.00
2022-12-13T01:08:49.972Z,0.00
2022-12-13T01:09:50.150Z,0.00
2022-12-13T01:10:49.923Z,0.00
2022-12-13T01:11:49.902Z,0.00
2022-12-13T01:12:49.879Z,0.00
2022-12-13T01:13:49.887Z,0.00
2022-12-13T01:14:55.771Z,0.00
2022-12-13T01:15:49.816Z,0.00
2022-12-13T01:16:49.816Z,0.00
2022-12-13T01:17:49.772Z,0.00
2022-12-13T01:18:49.745Z,0.00
2022-12-13T01:19:49.732Z,0.00
2022-12-13T01:20:49.703Z,0.00
2022-12-13T01:21:49.685Z,0.00
2022-12-13T01:22:49.655Z,0.00
2022-12-13T01:23:49.637Z,0.00
2022-12-13T01:24:49.612Z,0.00
2022-12-13T01:25:49.593Z,0.00
2022-12-13T01:26:49.572Z,0.00
2022-12-13T01:27:49.552Z,0.00
2022-12-13T01:28:49.528Z,0.00
2022-12-13T01:29:49.522Z,0.00
2022-12-13T01:30:49.487Z,0.00
2022-12-13T01:31:49.461Z,0.00
2022-12-13T01:32:49.438Z,0.00
2022-12-13T01:33:49.415Z,0.00
2022-12-13T01:34:49.388Z,0.00
2022-12-13T01:35:49.369Z,0.00
2022-12-13T01:36:49.342Z,0.00
2022-12-13T01:37:49.323Z,0.00
2022-12-13T01:38:49.298Z,0.00
2022-12-13T01:39:49.281Z,0.00
2022-12-13T01:40:49.252Z,0.00
2022-12-13T01:41:49.233Z,0.00
2022-12-13T01:42:49.207Z,0.00
2022-12-13T01:43:49.190Z,0.00
2022-12-13T01:44:49.161Z,0.00
2022-12-13T01:45:49.241Z,0.00
2022-12-13T01:46:49.121Z,0.00
2022-12-13T01:47:49.095Z,0.00
2022-12-13T01:48:49.069Z,0.00
2022-12-13T01:49:49.052Z,0.00
2022-12-13T01:50:49.031Z,0.00
2022-12-13T01:51:49.005Z,0.00
2022-12-13T01:52:48.979Z,0.00
2022-12-13T01:53:48.959Z,0.00
2022-12-13T01:54:48.936Z,0.00
2022-12-13T01:55:48.917Z,0.00
2022-12-13T01:56:48.887Z,0.00
2022-12-13T01:57:48.869Z,0.00
2022-12-13T01:58:48.843Z,0.00
2022-12-13T01:59:48.827Z,0.00
2022-12-13T02:00:48.799Z,0.00
2022-12-13T02:01:48.891Z,0.00
2022-12-13T02:02:48.749Z,0.00
2022-12-13T02:03:48.734Z,0.00
2022-12-13T02:04:48.801Z,0.00
2022-12-13T02:05:48.686Z,0.00
2022-12-13T02:06:48.660Z,0.00
2022-12-13T02:07:48.750Z,0.00
2022-12-13T02:08:48.613Z,0.00
2022-12-13T02:09:48.594Z,0.00
2022-12-13T02:10:48.568Z,0.00
2022-12-13T02:11:48.549Z,0.00
2022-12-13T02:12:48.522Z,0.00
2022-12-13T02:13:48.503Z,0.00
2022-12-13T02:14:48.477Z,0.00
2022-12-13T02:15:48.495Z,0.00
2022-12-13T02:16:48.433Z,0.00
2022-12-13T02:17:48.746Z,0.00
2022-12-13T02:18:48.391Z,0.00
2022-12-13T02:19:48.370Z,0.00
2022-12-13T02:20:48.344Z,0.00
2022-12-13T02:21:48.323Z,0.00
2022-12-13T02:22:48.298Z,0.00
2022-12-13T02:23:48.279Z,0.00
2022-12-13T02:24:48.254Z,0.00
2022-12-13T02:25:48.232Z,0.00
2022-12-13T02:26:48.274Z,0.00
2022-12-13T02:27:48.255Z,0.00
2022-12-13T02:28:48.164Z,0.00
2022-12-13T02:29:48.145Z,0.00
2022-12-13T02:30:48.199Z,0.00
2022-12-13T02:31:48.097Z,0.00
2022-12-13T02:32:48.073Z,0.00
2022-12-13T02:33:48.370Z,0.00
2022-12-13T02:34:48.029Z,0.00
2022-12-13T02:35:48.009Z,0.00
2022-12-13T02:36:47.986Z,0.00
2022-12-13T02:37:47.967Z,0.00
2022-12-13T02:38:47.938Z,0.00
2022-12-13T02:39:47.922Z,0.00
2022-12-13T02:40:47.894Z,0.00
2022-12-13T02:41:47.877Z,0.00
2022-12-13T02:42:47.852Z,0.00
2022-12-13T02:43:47.831Z,0.00
2022-12-13T02:44:47.816Z,0.00
2022-12-13T02:45:47.785Z,0.00
2022-12-13T02:46:47.760Z,0.00
2022-12-13T02:47:47.742Z,0.00
2022-12-13T02:48:47.716Z,0.00
2022-12-13T02:49:47.715Z,0.00
2022-12-13T02:50:47.672Z,0.00
2022-12-13T02:51:47.650Z,0.00
2022-12-13T02:52:47.625Z,0.00
2022-12-13T02:53:47.606Z,0.00
2022-12-13T02:54:47.579Z,0.00
2022-12-13T02:55:47.561Z,0.00
2022-12-13T02:56:47.534Z,0.00
2022-12-13T02:57:47.517Z,0.00
2022-12-13T02:58:47.538Z,0.00
2022-12-13T02:59:47.471Z,0.00
2022-12-13T03:00:47.447Z,0.00
2022-12-13T03:01:47.491Z,0.00
2022-12-13T03:02:47.525Z,0.00
2022-12-13T03:03:47.446Z,0.00
2022-12-13T03:04:47.354Z,0.00
2022-12-13T03:05:47.357Z,0.00
2022-12-13T03:06:47.311Z,0.00
2022-12-13T03:07:47.290Z,0.00
2022-12-13T03:08:47.271Z,0.00
2022-12-13T03:09:47.345Z,0.00
2022-12-13T03:10:47.216Z,0.00
2022-12-13T03:11:47.197Z,0.00
2022-12-13T03:12:47.171Z,0.00
2022-12-13T03:13:47.151Z,0.00
2022-12-13T03:14:47.127Z,0.00
2022-12-13T03:15:47.135Z,0.00
2022-12-13T03:16:47.082Z,0.00
2022-12-13T03:17:47.061Z,0.00
2022-12-13T03:18:47.039Z,0.00
2022-12-13T03:19:47.023Z,0.00
2022-12-13T03:20:46.993Z,0.00
2022-12-13T03:21:48.273Z,0.00
2022-12-13T03:22:46.946Z,0.00
2022-12-13T03:23:46.921Z,0.00
2022-12-13T03:24:46.902Z,0.00
2022-12-13T03:25:46.877Z,0.00
2022-12-13T03:26:46.855Z,0.00
2022-12-13T03:27:46.832Z,0.00
2022-12-13T03:28:46.811Z,0.00
2022-12-13T03:29:46.784Z,0.00
2022-12-13T03:30:46.766Z,0.00
2022-12-13T03:31:46.840Z,0.00
2022-12-13T03:32:46.721Z,0.00
2022-12-13T03:33:46.699Z,0.00
2022-12-13T03:34:49.638Z,0.00
2022-12-13T03:35:46.808Z,0.00
2022-12-13T03:36:46.629Z,0.00
2022-12-13T03:37:46.624Z,0.00
2022-12-13T03:38:46.585Z,0.00
2022-12-13T03:39:46.555Z,0.00
2022-12-13T03:40:46.536Z,0.00
2022-12-13T03:41:46.511Z,0.00
2022-12-13T03:42:46.491Z,0.00
2022-12-13T03:43:46.465Z,0.00
2022-12-13T03:44:46.446Z,0.00
2022-12-13T03:45:46.421Z,0.00
2022-12-13T03:46:46.442Z,0.00
2022-12-13T03:47:46.374Z,0.00
2022-12-13T03:48:46.355Z,0.00
2022-12-13T03:49:46.329Z,0.00
2022-12-13T03:50:46.310Z,0.00
2022-12-13T03:51:46.292Z,0.00
2022-12-13T03:52:46.267Z,0.00
2022-12-13T03:53:46.268Z,0.00
2022-12-13T03:54:46.221Z,0.00
2022-12-13T03:55:46.192Z,0.00
2022-12-13T03:56:46.173Z,0.00
2022-12-13T03:57:46.148Z,0.00
2022-12-13T03:58:46.126Z,0.00
2022-12-13T03:59:46.102Z,0.00
2022-12-13T04:00:46.082Z,0.00
2022-12-13T04:01:46.112Z,0.00
2022-12-13T04:02:46.072Z,0.00
2022-12-13T04:03:46.011Z,0.00
2022-12-13T04:04:45.992Z,0.00
2022-12-13T04:05:45.967Z,0.00
2022-12-13T04:06:45.946Z,0.00
2022-12-13T04:07:48.323Z,0.00
2022-12-13T04:08:46.007Z,0.00
2022-12-13T04:09:45.897Z,0.00
2022-12-13T04:10:45.857Z,0.00
2022-12-13T04:11:45.832Z,0.00
2022-12-13T04:12:48.551Z,0.00
2022-12-13T04:13:45.786Z,0.00
2022-12-13T04:14:45.766Z,0.00
2022-12-13T04:15:45.830Z,0.00
2022-12-13T04:16:45.724Z,0.00
2022-12-13T04:17:45.700Z,0.00
2022-12-13T04:18:45.679Z,0.00
2022-12-13T04:19:45.652Z,0.00
2022-12-13T04:20:45.636Z,0.00
2022-12-13T04:21:45.606Z,0.00
2022-12-13T04:22:45.586Z,0.00
2022-12-13T04:23:45.561Z,0.00
2022-12-13T04:24:45.542Z,0.00
2022-12-13T04:25:45.534Z,0.00
2022-12-13T04:26:45.497Z,0.00
2022-12-13T04:27:45.472Z,0.00
2022-12-13T04:28:49.454Z,0.00
2022-12-13T04:29:45.428Z,0.00
2022-12-13T04:30:45.408Z,0.00
2022-12-13T04:31:45.415Z,0.00
2022-12-13T04:32:45.367Z,0.00
2022-12-13T04:33:45.338Z,0.00
2022-12-13T04:34:45.315Z,0.00
2022-12-13T04:35:45.291Z,0.00
2022-12-13T04:36:45.285Z,0.00
2022-12-13T04:37:45.264Z,0.00
2022-12-13T04:38:45.231Z,0.00
2022-12-13T04:39:47.755Z,0.00
2022-12-13T04:40:45.186Z,0.00
2022-12-13T04:41:45.177Z,0.00
2022-12-13T04:42:45.144Z,0.00
2022-12-13T04:43:45.110Z,0.00
2022-12-13T04:44:46.229Z,0.00
2022-12-13T04:45:45.177Z,0.00
2022-12-13T04:46:45.051Z,0.00
2022-12-13T04:47:45.021Z,0.00
2022-12-13T04:48:45.004Z,0.00
2022-12-13T04:49:45.024Z,0.00
2022-12-13T04:50:44.955Z,0.00
2022-12-13T04:51:47.809Z,0.00
2022-12-13T04:52:44.916Z,0.00
2022-12-13T04:53:44.885Z,0.00
2022-12-13T04:54:44.866Z,0.00
2022-12-13T04:55:44.839Z,0.00
2022-12-13T04:56:44.820Z,0.00
2022-12-13T04:57:44.816Z,0.00
2022-12-13T04:58:44.776Z,0.00
2022-12-13T04:59:44.750Z,0.00
2022-12-13T05:00:44.828Z,0.00
2022-12-13T05:01:44.704Z,0.00
2022-12-13T05:02:44.753Z,0.00
2022-12-13T05:03:44.659Z,0.00
2022-12-13T05:04:44.640Z,0.00
2022-12-13T05:05:44.614Z,0.00
2022-12-13T05:06:44.594Z,0.00
2022-12-13T05:07:44.576Z,0.00
2022-12-13T05:08:44.552Z,0.00
2022-12-13T05:09:44.527Z,0.00
2022-12-13T05:10:44.507Z,0.00
2022-12-13T05:11:45.457Z,0.00
2022-12-13T05:12:44.460Z,0.00
2022-12-13T05:13:44.457Z,0.00
2022-12-13T05:14:44.416Z,0.00
2022-12-13T05:15:44.393Z,0.00
2022-12-13T05:16:44.459Z,0.00
2022-12-13T05:17:44.345Z,0.00
2022-12-13T05:18:44.329Z,0.00
2022-12-13T05:19:44.299Z,0.00
2022-12-13T05:20:44.281Z,0.00
2022-12-13T05:21:44.255Z,0.00
2022-12-13T05:22:44.235Z,0.00
2022-12-13T05:23:44.208Z,0.00
2022-12-13T05:24:44.191Z,0.00
2022-12-13T05:25:44.164Z,0.00
2022-12-13T05:26:44.144Z,0.00
2022-12-13T05:27:44.121Z,0.00
2022-12-13T05:28:44.106Z,0.00
2022-12-13T05:29:44.098Z,0.00
2022-12-13T05:30:44.055Z,0.00
2022-12-13T05:31:44.099Z,0.00
2022-12-13T05:32:44.899Z,0.00
2022-12-13T05:33:43.984Z,0.00
2022-12-13T05:34:43.964Z,0.00
2022-12-13T05:35:43.942Z,0.00
2022-12-13T05:36:43.920Z,0.00
2022-12-13T05:37:43.895Z,0.00
2022-12-13T05:38:43.874Z,0.00
2022-12-13T05:39:43.849Z,0.00
2022-12-13T05:40:43.829Z,0.00
2022-12-13T05:41:43.807Z,0.00
2022-12-13T05:42:43.785Z,0.00
2022-12-13T05:43:44.002Z,0.00
2022-12-13T05:44:43.740Z,0.00
2022-12-13T05:45:43.812Z,0.00
2022-12-13T05:46:43.750Z,0.00
2022-12-13T05:47:43.667Z,0.00
2022-12-13T05:48:43.648Z,0.00
2022-12-13T05:49:43.623Z,0.00
2022-12-13T05:50:43.602Z,0.00
2022-12-13T05:51:43.576Z,0.00
2022-12-13T05:52:43.557Z,0.00
2022-12-13T05:53:45.264Z,0.00
2022-12-13T05:54:43.512Z,0.00
2022-12-13T05:55:43.488Z,0.00
2022-12-13T05:56:43.469Z,0.00
2022-12-13T05:57:50.797Z,0.00
2022-12-13T05:58:43.419Z,0.00
2022-12-13T05:59:43.394Z,0.00
2022-12-13T06:00:43.377Z,0.00
2022-12-13T06:01:43.588Z,0.00
2022-12-13T06:02:43.466Z,0.00
2022-12-13T06:03:43.434Z,0.00
2022-12-13T06:04:43.282Z,0.00
2022-12-13T06:05:43.258Z,0.00
2022-12-13T06:06:43.238Z,0.00
2022-12-13T06:07:43.211Z,0.00
2022-12-13T06:08:43.223Z,0.00
2022-12-13T06:09:43.167Z,0.00
2022-12-13T06:10:43.145Z,0.00
2022-12-13T06:11:43.488Z,0.00
2022-12-13T06:12:43.509Z,0.00
2022-12-13T06:13:43.768Z,0.00
2022-12-13T06:14:43.052Z,0.00
2022-12-13T06:15:44.388Z,0.00
2022-12-13T06:16:43.033Z,0.00
2022-12-13T06:17:42.999Z,0.00
2022-12-13T06:18:42.963Z,0.00
2022-12-13T06:19:43.137Z,0.00
2022-12-13T06:20:42.917Z,0.00
2022-12-13T06:21:46.309Z,0.00
2022-12-13T06:22:42.869Z,0.00
2022-12-13T06:23:42.843Z,0.00
2022-12-13T06:24:43.001Z,0.00
2022-12-13T06:25:45.372Z,0.00
2022-12-13T06:26:42.782Z,0.00
2022-12-13T06:27:42.751Z,0.00
2022-12-13T06:28:42.728Z,0.00
2022-12-13T06:29:42.940Z,0.00
2022-12-13T06:30:42.981Z,0.00
2022-12-13T06:31:42.706Z,0.00
2022-12-13T06:32:44.085Z,0.00
2022-12-13T06:33:42.629Z,0.00
2022-12-13T06:34:42.589Z,0.00
2022-12-13T06:35:42.567Z,0.00
2022-12-13T06:36:42.548Z,0.00
2022-12-13T06:37:42.517Z,4.00
2022-12-13T06:38:43.589Z,0.00
2022-12-13T06:39:42.630Z,0.00
2022-12-13T06:40:42.448Z,4.00
2022-12-13T06:41:42.423Z,0.00
2022-12-13T06:42:42.402Z,4.00
2022-12-13T06:43:42.377Z,4.00
2022-12-13T06:44:42.358Z,4.00
2022-12-13T06:45:42.333Z,4.00
2022-12-13T06:46:42.322Z,8.00
2022-12-13T06:47:42.284Z,8.00
2022-12-13T06:48:42.262Z,8.00
2022-12-13T06:49:43.161Z,8.00
2022-12-13T06:50:42.220Z,12.00
2022-12-13T06:51:42.191Z,12.00
2022-12-13T06:52:42.173Z,16.00
2022-12-13T06:53:42.149Z,20.00
2022-12-13T06:54:42.125Z,20.00
2022-12-13T06:55:42.100Z,24.00
2022-12-13T06:56:42.078Z,24.00
2022-12-13T06:57:42.053Z,28.00
2022-12-13T06:58:42.032Z,32.00
2022-12-13T06:59:42.436Z,36.00
2022-12-13T07:00:48.897Z,36.00
2022-12-13T07:01:41.983Z,40.00
2022-12-13T07:02:42.081Z,44.00
2022-12-13T07:03:41.915Z,52.00
2022-12-13T07:04:41.944Z,56.00
2022-12-13T07:05:43.164Z,60.00
2022-12-13T07:06:41.847Z,68.00
2022-12-13T07:07:41.821Z,72.00
2022-12-13T07:08:41.801Z,76.00
2022-12-13T07:09:42.032Z,84.00
2022-12-13T07:10:41.756Z,92.00
2022-12-13T07:11:44.690Z,100.00
2022-12-13T07:12:41.709Z,104.00
2022-12-13T07:13:41.686Z,116.00
2022-12-13T07:14:41.664Z,124.00
2022-12-13T07:15:41.726Z,132.00
2022-12-13T07:16:41.619Z,136.00
2022-12-13T07:17:41.592Z,148.00
2022-12-13T07:18:41.571Z,156.00
2022-12-13T07:19:41.544Z,168.00
2022-12-13T07:20:41.526Z,176.00
2022-12-13T07:21:41.518Z,188.00
2022-12-13T07:22:46.989Z,196.00
2022-12-13T07:23:41.454Z,208.00
2022-12-13T07:24:41.432Z,220.00
2022-12-13T07:25:41.410Z,236.00
2022-12-13T07:26:41.387Z,252.00
2022-12-13T07:27:41.358Z,268.00
2022-12-13T07:28:41.341Z,284.00
2022-12-13T07:29:41.537Z,304.00
2022-12-13T07:30:41.959Z,320.00
2022-12-13T07:31:41.316Z,340.00
2022-12-13T07:32:41.250Z,352.00
2022-12-13T07:33:41.221Z,368.00
2022-12-13T07:34:41.200Z,380.00
2022-12-13T07:35:41.178Z,388.00
2022-12-13T07:36:41.154Z,396.00
2022-12-13T07:37:41.154Z,404.00
2022-12-13T07:38:41.109Z,412.00
2022-12-13T07:39:41.082Z,420.00
2022-12-13T07:40:41.121Z,428.00
2022-12-13T07:41:41.039Z,440.00
2022-12-13T07:42:41.010Z,448.00
2022-12-13T07:43:40.991Z,460.00
2022-12-13T07:44:40.966Z,472.00
2022-12-13T07:45:40.945Z,484.00
2022-12-13T07:46:41.025Z,496.00
2022-12-13T07:47:40.904Z,504.00
2022-12-13T07:48:40.872Z,516.00
2022-12-13T07:49:40.852Z,528.00
2022-12-13T07:50:40.827Z,548.00
2022-12-13T07:51:40.805Z,556.00
2022-12-13T07:52:40.778Z,572.00
2022-12-13T07:53:40.776Z,588.00
2022-12-13T07:54:40.732Z,604.00
2022-12-13T07:55:40.712Z,624.00
2022-12-13T07:56:40.686Z,636.00
2022-12-13T07:57:40.666Z,652.00
2022-12-13T07:58:40.640Z,668.00
2022-12-13T07:59:40.622Z,680.00
2022-12-13T08:00:40.595Z,688.00
2022-12-13T08:01:40.608Z,696.00
2022-12-13T08:02:40.551Z,704.00
2022-12-13T08:03:40.532Z,708.00
2022-12-13T08:04:40.557Z,716.00
2022-12-13T08:05:40.566Z,724.00
2022-12-13T08:06:40.456Z,736.00
2022-12-13T08:07:40.437Z,748.00
2022-12-13T08:08:40.468Z,764.00
2022-12-13T08:09:40.419Z,784.00
2022-12-13T08:10:40.380Z,804.00
2022-12-13T08:11:40.345Z,832.00
2022-12-13T08:12:40.320Z,860.00
2022-12-13T08:13:40.302Z,896.00
2022-12-13T08:14:40.274Z,924.00
2022-12-13T08:15:40.313Z,956.00
2022-12-13T08:16:40.329Z,980.00
2022-12-13T08:17:40.209Z,992.00
2022-12-13T08:18:40.185Z,996.00
2022-12-13T08:19:40.163Z,996.00
2022-12-13T08:20:40.138Z,1004.00
2022-12-13T08:21:57.927Z,1008.00
2022-12-13T08:22:40.092Z,1016.00
2022-12-13T08:23:40.071Z,1024.00
2022-12-13T08:24:40.045Z,1036.00
2022-12-13T08:25:40.148Z,1044.00
2022-12-13T08:26:40.000Z,1064.00
2022-12-13T08:27:42.847Z,1084.00
2022-12-13T08:28:39.956Z,1112.00
2022-12-13T08:29:39.937Z,1144.00
2022-12-13T08:30:39.911Z,1176.00
2022-12-13T08:31:39.939Z,1212.00
2022-12-13T08:32:39.867Z,1236.00
2022-12-13T08:33:39.850Z,1272.00
2022-12-13T08:34:39.817Z,1304.00
2022-12-13T08:35:39.801Z,1336.00
2022-12-13T08:36:39.774Z,1364.00
2022-12-13T08:37:39.755Z,1388.00
2022-12-13T08:38:39.728Z,1412.00
2022-12-13T08:39:39.714Z,1436.00
2022-12-13T08:40:39.686Z,1456.00
2022-12-13T08:41:39.666Z,1480.00
2022-12-13T08:42:39.642Z,1504.00
2022-12-13T08:43:39.621Z,1528.00
2022-12-13T08:44:39.595Z,1552.00
2022-12-13T08:45:39.577Z,1572.00
2022-12-13T08:46:39.566Z,1588.00
2022-12-13T08:47:41.760Z,1596.00
2022-12-13T08:48:43.709Z,1608.00
2022-12-13T08:49:39.486Z,1624.00
2022-12-13T08:50:39.461Z,1636.00
2022-12-13T08:51:39.443Z,1648.00
2022-12-13T08:52:42.553Z,1664.00
2022-12-13T08:53:41.276Z,1680.00
2022-12-13T08:54:39.371Z,1688.00
2022-12-13T08:55:39.352Z,1704.00
2022-12-13T08:56:39.331Z,1724.00
2022-12-13T08:57:39.306Z,1736.00
2022-12-13T08:58:39.282Z,1744.00
2022-12-13T08:59:39.265Z,1744.00
2022-12-13T09:00:39.265Z,1748.00
2022-12-13T09:01:39.360Z,1752.00
2022-12-13T09:02:39.330Z,1764.00
2022-12-13T09:03:39.172Z,1772.00
2022-12-13T09:04:39.169Z,1780.00
2022-12-13T09:05:39.140Z,1780.00
2022-12-13T09:06:39.103Z,1784.00
2022-12-13T09:07:39.085Z,1792.00
2022-12-13T09:08:39.095Z,1800.00
2022-12-13T09:09:39.040Z,1816.00
2022-12-13T09:10:39.019Z,1832.00
2022-12-13T09:11:40.200Z,1860.00
2022-12-13T09:12:41.708Z,1884.00
2022-12-13T09:13:43.377Z,1908.00
2022-12-13T09:14:45.347Z,1920.00
2022-12-13T09:15:38.927Z,1928.00
2022-12-13T09:16:39.015Z,1936.00
2022-12-13T09:17:38.925Z,1936.00
2022-12-13T09:18:38.927Z,1940.00
2022-12-13T09:19:38.888Z,1952.00
2022-12-13T09:20:41.058Z,1980.00
2022-12-13T09:21:38.774Z,2008.00
2022-12-13T09:22:38.752Z,2024.00
2022-12-13T09:23:38.731Z,2032.00
2022-12-13T09:24:38.709Z,2044.00
2022-12-13T09:25:38.686Z,2060.00
2022-12-13T09:26:38.780Z,2060.00
2022-12-13T09:27:39.620Z,2048.00
2022-12-13T09:28:38.669Z,2036.00
2022-12-13T09:29:38.602Z,2028.00
2022-12-13T09:30:38.580Z,2028.00
2022-12-13T09:31:38.596Z,2036.00
2022-12-13T09:32:38.527Z,2048.00
2022-12-13T09:33:41.008Z,2052.00
2022-12-13T09:34:38.518Z,2056.00
2022-12-13T09:35:38.472Z,2048.00
2022-12-13T09:36:38.462Z,2052.00
2022-12-13T09:37:44.144Z,2048.00
2022-12-13T09:38:38.394Z,2032.00
2022-12-13T09:39:38.373Z,2032.00
2022-12-13T09:40:38.351Z,2028.00
2022-12-13T09:41:40.986Z,2020.00
2022-12-13T09:42:38.305Z,2016.00
2022-12-13T09:43:43.174Z,1996.00
2022-12-13T09:44:43.732Z,1976.00
2022-12-13T09:45:42.772Z,1964.00
2022-12-13T09:46:45.046Z,1960.00
2022-12-13T09:47:38.234Z,1956.00
2022-12-13T09:48:38.173Z,1968.00
2022-12-13T09:49:38.194Z,1996.00
2022-12-13T09:50:42.471Z,2028.00
2022-12-13T09:51:43.676Z,2076.00
2022-12-13T09:52:38.102Z,2120.00
2022-12-13T09:53:38.263Z,2172.00
2022-12-13T09:54:47.191Z,2216.00
2022-12-13T09:55:38.021Z,2256.00
2022-12-13T09:56:37.998Z,2300.00
2022-12-13T09:57:37.977Z,2336.00
2022-12-13T09:58:37.951Z,2364.00
2022-12-13T09:59:37.934Z,2372.00
2022-12-13T10:00:37.935Z,2356.00
2022-12-13T10:01:37.940Z,2336.00
2022-12-13T10:02:37.869Z,2320.00
2022-12-13T10:03:37.853Z,2292.00
2022-12-13T10:04:37.828Z,2268.00
2022-12-13T10:05:39.141Z,2240.00
2022-12-13T10:06:37.776Z,2212.00
2022-12-13T10:07:37.757Z,2184.00
2022-12-13T10:08:37.750Z,2172.00
2022-12-13T10:09:37.718Z,2172.00
2022-12-13T10:10:37.688Z,2176.00
2022-12-13T10:11:37.670Z,2184.00
2022-12-13T10:12:37.646Z,2188.00
2022-12-13T10:13:37.625Z,2196.00
2022-12-13T10:14:37.601Z,2216.00
2022-12-13T10:15:37.583Z,2228.00
2022-12-13T10:16:37.720Z,2228.00
2022-12-13T10:17:38.286Z,2232.00
2022-12-13T10:18:37.515Z,2256.00
2022-12-13T10:19:37.494Z,2288.00
2022-12-13T10:20:37.472Z,2316.00
2022-12-13T10:21:37.451Z,2336.00
2022-12-13T10:22:37.426Z,2364.00
2022-12-13T10:24:06.849Z,2416.00
2022-12-13T10:24:37.985Z,2468.00
2022-12-13T10:25:37.415Z,2524.00
2022-12-13T10:26:37.463Z,2604.00
2022-12-13T10:27:37.318Z,2672.00
2022-12-13T10:28:37.294Z,2724.00
2022-12-13T10:29:37.287Z,2776.00
2022-12-13T10:30:37.250Z,2828.00
2022-12-13T10:31:37.269Z,2824.00
2022-12-13T10:32:38.105Z,2832.00
2022-12-13T10:33:37.191Z,2800.00
2022-12-13T10:34:37.167Z,2844.00
2022-12-13T10:35:37.147Z,2784.00
2022-12-13T10:36:37.118Z,2744.00
2022-12-13T10:37:37.103Z,2748.00
2022-12-13T10:38:37.078Z,2696.00
2022-12-13T10:39:37.059Z,2640.00
2022-12-13T10:40:37.051Z,2572.00
2022-12-13T10:41:37.014Z,2536.00
2022-12-13T10:42:36.989Z,2564.00
2022-12-13T10:43:38.112Z,2592.00
2022-12-13T10:44:36.948Z,2580.00
2022-12-13T10:45:36.966Z,2540.00
2022-12-13T10:46:38.624Z,2484.00
2022-12-13T10:47:36.886Z,2428.00
2022-12-13T10:48:38.197Z,2404.00
2022-12-13T10:49:36.843Z,2452.00
2022-12-13T10:50:36.856Z,2544.00
2022-12-13T10:51:36.800Z,2600.00
2022-12-13T10:52:43.348Z,2604.00
2022-12-13T10:53:36.757Z,2568.00
2022-12-13T10:54:38.530Z,2508.00
2022-12-13T10:55:36.713Z,2468.00
2022-12-13T10:56:36.707Z,2476.00
2022-12-13T10:57:36.668Z,2512.00
2022-12-13T10:58:36.644Z,2536.00
2022-12-13T10:59:36.627Z,2532.00
2022-12-13T11:00:36.653Z,2520.00
2022-12-13T11:01:36.606Z,2520.00
2022-12-13T11:02:36.706Z,2500.00
2022-12-13T11:03:36.542Z,2472.00
2022-12-13T11:04:36.519Z,2468.00
2022-12-13T11:05:36.499Z,2492.00
2022-12-13T11:06:36.473Z,2540.00
2022-12-13T11:07:36.456Z,2604.00
2022-12-13T11:08:36.432Z,2652.00
2022-12-13T11:09:38.498Z,2668.00
2022-12-13T11:10:36.388Z,2652.00
2022-12-13T11:11:36.372Z,2600.00
2022-12-13T11:12:36.370Z,2532.00
2022-12-13T11:13:36.337Z,2464.00
2022-12-13T11:14:41.886Z,2472.00
2022-12-13T11:15:36.286Z,2556.00
2022-12-13T11:16:36.296Z,2628.00
2022-12-13T11:17:36.244Z,2684.00
2022-12-13T11:18:36.218Z,2684.00
2022-12-13T11:19:36.283Z,2696.00
2022-12-13T11:20:36.178Z,2764.00
2022-12-13T11:21:36.159Z,2812.00
2022-12-13T11:22:36.135Z,2856.00
2022-12-13T11:23:36.118Z,2888.00
2022-12-13T11:24:36.094Z,2892.00
2022-12-13T11:25:36.074Z,2856.00
2022-12-13T11:26:36.050Z,2796.00
2022-12-13T11:27:36.034Z,2724.00
2022-12-13T11:28:36.026Z,2692.00
2022-12-13T11:29:35.990Z,2672.00
2022-12-13T11:30:35.966Z,2660.00
2022-12-13T11:31:35.994Z,2664.00
2022-12-13T11:32:35.924Z,2708.00
2022-12-13T11:33:35.906Z,2740.00
2022-12-13T11:34:35.886Z,2748.00
2022-12-13T11:35:35.923Z,2844.00
2022-12-13T11:36:35.841Z,2988.00
2022-12-13T11:37:35.825Z,3068.00
2022-12-13T11:38:35.801Z,3068.00
2022-12-13T11:39:35.783Z,3056.00
2022-12-13T11:40:35.759Z,3072.00
2022-12-13T11:41:35.740Z,3088.00
2022-12-13T11:42:35.717Z,3140.00
2022-12-13T11:43:35.707Z,3176.00
2022-12-13T11:44:35.694Z,3200.00
2022-12-13T11:45:35.697Z,3196.00
2022-12-13T11:46:35.632Z,3168.00
2022-12-13T11:47:35.615Z,3148.00
2022-12-13T11:48:35.591Z,3092.00
2022-12-13T11:49:35.579Z,3000.00
2022-12-13T11:50:35.562Z,2884.00
2022-12-13T11:51:35.530Z,2752.00
2022-12-13T11:52:35.544Z,2644.00
2022-12-13T11:53:35.488Z,2592.00
2022-12-13T11:54:35.470Z,2572.00
2022-12-13T11:55:35.447Z,2568.00
2022-12-13T11:56:38.637Z,2540.00
2022-12-13T11:57:35.409Z,2496.00
2022-12-13T11:59:39.657Z,2372.00
2022-12-13T12:00:35.587Z,2312.00
2022-12-13T12:01:38.174Z,2240.00
2022-12-13T12:02:35.354Z,2140.00
2022-12-13T12:03:35.330Z,2052.00
2022-12-13T12:04:35.265Z,1984.00
2022-12-13T12:05:35.247Z,1944.00
2022-12-13T12:06:35.222Z,1924.00
2022-12-13T12:07:35.251Z,1912.00
2022-12-13T12:08:35.184Z,1884.00
2022-12-13T12:09:35.160Z,1844.00
2022-12-13T12:10:35.143Z,1796.00
2022-12-13T12:11:35.118Z,1768.00
2022-12-13T12:12:35.100Z,1764.00
2022-12-13T12:13:35.078Z,1772.00
2022-12-13T12:14:35.058Z,1808.00
2022-12-13T12:15:41.434Z,1844.00
2022-12-13T12:16:35.119Z,1852.00
2022-12-13T12:17:42.092Z,1828.00
2022-12-13T12:18:34.976Z,1792.00
2022-12-13T12:19:34.951Z,1768.00
2022-12-13T12:20:34.971Z,1752.00
2022-12-13T12:22:05.056Z,1748.00
2022-12-13T12:22:34.891Z,1752.00
2022-12-13T12:23:40.026Z,1748.00
2022-12-13T12:24:34.852Z,1744.00
2022-12-13T12:25:34.826Z,1736.00
2022-12-13T12:26:34.807Z,1728.00
2022-12-13T12:27:34.784Z,1716.00
2022-12-13T12:28:34.766Z,1724.00
2022-12-13T12:29:34.742Z,1748.00
2022-12-13T12:30:34.724Z,1776.00
2022-12-13T12:31:34.739Z,1796.00
2022-12-13T12:32:34.703Z,1796.00
2022-12-13T12:33:34.660Z,1780.00
2022-12-13T12:34:34.640Z,1748.00
2022-12-13T12:35:34.618Z,1736.00
2022-12-13T12:36:34.600Z,1716.00
2022-12-13T12:37:34.579Z,1688.00
2022-12-13T12:38:34.559Z,1664.00
2022-12-13T12:39:34.536Z,1644.00
2022-12-13T12:40:52.130Z,1640.00
2022-12-13T12:41:34.492Z,1628.00
2022-12-13T12:42:56.485Z,1612.00
2022-12-13T12:43:34.857Z,1592.00
2022-12-13T12:44:34.432Z,1588.00
2022-12-13T12:45:58.268Z,1588.00
2022-12-13T12:46:47.179Z,1592.00
2022-12-13T12:48:42.712Z,1596.00